Time;durP1;ratioP1;P1;durP2;ratioP2;P2;SDS_P1;SDS_P2;PMS_P1;PMS_P2;Temp;Humidity;BMP_temperature;BMP_pressure;BME280_temperature;BME280_humidity;BME280_pressure;Samples;Min_cycle;Max_cycle;Signal;HPM_P1;HPM_P2
2023/06/23 00:02:18;;;;;;;3.60;2.78;;;;;;;22.07;60.85;101796.56;5021905;28;20140;-52
2023/06/23 00:04:43;;;;;;;7.50;3.20;;;;;;;22.06;61.17;101800.28;5024904;28;20034;-52
2023/06/23 00:07:09;;;;;;;6.07;3.30;;;;;;;22.05;60.79;101798.59;5021074;28;20083;-50
2023/06/23 00:09:37;;;;;;;6.65;3.28;;;;;;;22.04;60.82;101797.72;5020378;28;20085;-51
2023/06/23 00:12:07;;;;;;;5.85;3.15;;;;;;;22.04;60.69;101807.72;5025407;28;20169;-51
2023/06/23 00:14:34;;;;;;;5.43;3.47;;;;;;;22.03;61.10;101811.44;5020063;28;20458;-51
2023/06/23 00:16:59;;;;;;;6.45;3.20;;;;;;;22.02;60.63;101801.59;5023751;28;20030;-52
2023/06/23 00:19:25;;;;;;;5.38;3.38;;;;;;;22.01;60.81;101808.03;5022529;28;20037;-51
2023/06/23 00:21:52;;;;;;;4.13;3.45;;;;;;;22.01;61.01;101819.72;5024026;28;20045;-52
2023/06/23 00:24:18;;;;;;;5.85;3.28;;;;;;;22.01;60.88;101818.88;5022611;28;20030;-52
2023/06/23 00:26:43;;;;;;;6.20;3.95;;;;;;;21.99;60.29;101810.88;5023754;28;20041;-51
2023/06/23 00:29:09;;;;;;;4.93;3.47;;;;;;;22.00;60.20;101822.59;5022191;28;20033;-52
2023/06/23 00:31:34;;;;;;;6.65;3.25;;;;;;;21.99;60.74;101823.56;5023182;28;20038;-52
2023/06/23 00:34:00;;;;;;;7.00;3.97;;;;;;;21.99;60.22;101831.72;5023020;28;20092;-51
2023/06/23 00:36:30;;;;;;;4.47;3.25;;;;;;;21.97;60.08;101825.59;5024185;28;20104;-52
2023/06/23 00:38:56;;;;;;;4.32;3.80;;;;;;;21.98;60.58;101830.88;5023566;28;20067;-51
2023/06/23 00:41:22;;;;;;;4.15;3.67;;;;;;;21.97;60.53;101836.44;5022805;28;20120;-51
2023/06/23 00:43:50;;;;;;;5.13;3.90;;;;;;;21.96;60.54;101842.88;5022856;28;20459;-52
2023/06/23 00:46:24;;;;;;;5.60;3.70;;;;;;;21.96;60.51;101840.16;5022425;28;20025;-52
2023/06/23 00:48:49;;;;;;;5.75;3.90;;;;;;;21.95;60.51;101847.44;5022073;28;20103;-52
2023/06/23 00:51:15;;;;;;;6.53;4.13;;;;;;;21.95;60.10;101843.84;5029898;28;20041;-51
2023/06/23 00:53:46;;;;;;;5.70;3.75;;;;;;;21.93;60.07;101854.84;5020546;28;20375;-52
2023/06/23 00:56:12;;;;;;;;;;;;;;;22.02;60.52;101855.84;5025015;28;20032;-52
2023/06/23 00:58:38;;;;;;;6.18;4.15;;;;;;;21.95;59.95;101862.84;5022315;28;19916;-51
2023/06/23 01:01:03;;;;;;;6.60;4.63;;;;;;;21.92;60.32;101868.56;5022746;28;20044;-52
2023/06/23 01:03:28;;;;;;;5.38;4.20;;;;;;;21.92;59.96;101871.28;5019489;28;20033;-52
2023/06/23 01:05:57;;;;;;;6.80;4.07;;;;;;;21.92;59.79;101879.44;5020280;28;20057;-52
2023/06/23 01:08:41;;;;;;;4.82;4.20;;;;;;;21.91;60.08;101883.97;5021263;28;20054;-52
2023/06/23 01:11:18;;;;;;;7.22;4.53;;;;;;;21.91;60.35;101891.25;5020858;28;20033;-52
2023/06/23 01:13:55;;;;;;;5.60;4.07;;;;;;;21.90;60.45;101887.69;5021281;28;20041;-52
2023/06/23 01:16:30;;;;;;;6.25;4.50;;;;;;;21.89;60.31;101890.56;5022783;28;20542;-52
2023/06/23 01:19:40;;;;;;;5.22;4.28;;;;;;;21.91;60.50;101883.13;5023488;28;20029;-51
2023/06/23 01:22:27;;;;;;;5.30;3.88;;;;;;;21.89;60.37;101874.28;5022948;28;20387;-51
2023/06/23 01:25:14;;;;;;;10.07;4.72;;;;;;;21.86;60.12;101881.72;5022111;28;20077;-50
2023/06/23 01:27:58;;;;;;;6.78;4.70;;;;;;;21.88;60.12;101895.13;5021797;28;20033;-52
2023/06/23 01:30:27;;;;;;;6.03;4.38;;;;;;;21.85;60.15;101895.41;5024589;28;20033;-50
2023/06/23 01:32:58;;;;;;;6.38;4.60;;;;;;;21.84;60.05;101896.44;5022283;28;20056;-52
2023/06/23 01:35:29;;;;;;;7.68;5.18;;;;;;;21.82;59.84;101902.00;5021731;28;20037;-52
2023/06/23 01:38:10;;;;;;;7.82;4.53;;;;;;;21.84;59.77;101893.72;5022970;28;20036;-51
2023/06/23 01:40:37;;;;;;;8.85;5.28;;;;;;;21.82;59.76;101902.00;5020524;28;20033;-52
2023/06/23 01:43:06;;;;;;;9.05;5.28;;;;;;;21.81;59.55;101900.25;5025617;28;20365;-51
2023/06/23 01:45:34;;;;;;;6.95;5.18;;;;;;;21.81;59.59;101894.00;5019174;28;20033;-52
2023/06/23 01:48:03;;;;;;;8.65;4.85;;;;;;;21.80;59.91;101904.00;5028425;28;20041;-51
2023/06/23 01:50:31;;;;;;;7.57;5.03;;;;;;;21.78;59.63;101897.88;5022940;28;20076;-50
2023/06/23 01:52:58;;;;;;;9.38;5.07;;;;;;;21.78;59.81;101911.44;5022457;28;20037;-52
2023/06/23 01:55:26;;;;;;;8.90;6.13;;;;;;;21.78;59.79;101915.97;5022296;28;20033;-52
2023/06/23 01:57:53;;;;;;;6.60;4.72;;;;;;;21.77;59.81;101914.28;5020628;28;20029;-52
2023/06/23 02:00:22;;;;;;;7.65;4.80;;;;;;;21.77;59.77;101914.28;5021256;28;20041;-51
2023/06/23 02:02:51;;;;;;;8.40;5.28;;;;;;;21.75;60.05;101911.69;5021773;28;20029;-51
2023/06/23 02:05:19;;;;;;;7.90;5.32;;;;;;;21.74;59.89;101914.56;5023275;28;20037;-51
2023/06/23 02:07:47;;;;;;;9.45;5.55;;;;;;;21.73;59.82;101913.72;5018606;28;20125;-51
2023/06/23 02:10:15;;;;;;;7.57;5.43;;;;;;;21.74;59.50;101926.28;5021396;28;20060;-51
2023/06/23 02:12:44;;;;;;;12.43;5.97;;;;;;;21.73;60.01;101929.97;5020969;28;20096;-52
2023/06/23 02:15:12;;;;;;;9.38;6.20;;;;;;;21.72;59.92;101932.81;5022086;28;20476;-52
2023/06/23 02:17:40;;;;;;;8.95;5.45;;;;;;;21.73;59.47;101935.38;5020665;28;20030;-52
2023/06/23 02:20:15;;;;;;;6.93;5.68;;;;;;;21.72;59.91;101933.66;5021691;28;20029;-52
2023/06/23 02:22:45;;;;;;;7.72;4.95;;;;;;;21.72;59.45;101943.66;5020410;28;20029;-52
2023/06/23 02:25:11;;;;;;;9.88;5.57;;;;;;;21.71;59.76;101933.84;5020659;28;20025;-51
2023/06/23 02:27:37;;;;;;;6.65;5.43;;;;;;;21.71;59.71;101952.81;5021194;28;20030;-52
2023/06/23 02:30:04;;;;;;;6.47;5.63;;;;;;;21.69;59.29;101958.38;5023240;28;20029;-52
2023/06/23 02:32:29;;;;;;;7.25;6.07;;;;;;;21.69;59.25;101971.94;5021920;28;20123;-52
2023/06/23 02:34:54;;;;;;;6.00;5.05;;;;;;;21.68;59.24;101967.50;5022341;28;20041;-51
2023/06/23 02:37:24;;;;;;;7.55;5.65;;;;;;;21.68;59.44;101975.63;5020612;28;20037;-52
2023/06/23 02:40:00;;;;;;;8.98;6.05;;;;;;;21.68;59.71;101970.19;5026889;28;20029;-51
2023/06/23 02:42:32;;;;;;;8.13;5.78;;;;;;;21.67;59.31;101976.63;5016173;28;20041;-52
2023/06/23 02:45:01;;;;;;;9.75;6.45;;;;;;;21.66;59.50;101974.91;5021133;28;20033;-50
2023/06/23 02:47:29;;;;;;;8.20;5.95;;;;;;;21.66;59.53;101977.63;5021137;28;20427;-51
2023/06/23 02:50:01;;;;;;;7.78;6.50;;;;;;;21.64;59.29;101979.63;5021499;28;20029;-52
2023/06/23 02:52:28;;;;;;;10.65;6.68;;;;;;;21.63;59.09;101984.19;5020562;28;20033;-51
2023/06/23 02:54:57;;;;;;;6.82;6.13;;;;;;;21.63;58.86;101986.91;5020032;28;20068;-52
2023/06/23 02:57:24;;;;;;;8.45;7.38;;;;;;;21.63;59.04;101996.91;5019256;28;20133;-52
2023/06/23 02:59:53;;;;;;;9.88;6.70;;;;;;;21.62;58.90;101987.88;5020226;28;20039;-51
2023/06/23 03:02:22;;;;;;;7.47;6.13;;;;;;;21.60;59.19;101992.59;5016595;28;20405;-51
2023/06/23 03:04:48;;;;;;;10.10;7.32;;;;;;;21.60;59.19;101998.00;5015378;28;20442;-52
2023/06/23 03:07:15;;;;;;;8.77;7.20;;;;;;;21.60;59.31;101994.47;5018034;28;20558;-51
2023/06/23 03:09:42;;;;;;;11.05;7.00;;;;;;;21.59;59.22;101992.72;5020431;28;20045;-52
2023/06/23 03:12:08;;;;;;;10.18;7.70;;;;;;;21.59;58.80;101995.44;5019615;28;20041;-52
2023/06/23 03:14:34;;;;;;;12.40;7.97;;;;;;;21.58;58.87;101994.59;5020920;28;20030;-51
2023/06/23 03:17:05;;;;;;;9.93;7.00;;;;;;;21.58;59.22;101991.03;5020727;28;20048;-52
2023/06/23 03:19:31;;;;;;;;;;;;;;;21.67;58.90;101991.03;5021166;28;20049;-52
2023/06/23 03:22:13;;;;;;;9.93;7.57;;;;;;;21.61;58.98;101996.16;5021934;28;19913;-51
2023/06/23 03:24:41;;;;;;;10.82;8.27;;;;;;;21.58;59.17;101999.16;5019790;28;20037;-51
2023/06/23 03:27:10;;;;;;;12.30;8.27;;;;;;;21.57;59.24;102005.56;5020347;28;20097;-52
2023/06/23 03:29:42;;;;;;;11.88;7.93;;;;;;;21.56;58.75;102012.00;5021970;28;20026;-52
2023/06/23 03:32:12;;;;;;;11.20;7.82;;;;;;;21.55;58.95;102013.00;5020690;28;20108;-51
2023/06/23 03:34:43;;;;;;;12.77;8.65;;;;;;;21.56;59.15;102014.72;5020450;28;20044;-52
2023/06/23 03:37:14;;;;;;;10.77;8.07;;;;;;;21.54;58.98;102005.88;5018618;28;20044;-52
2023/06/23 03:39:43;;;;;;;9.52;8.52;;;;;;;21.54;58.95;102009.44;5023674;28;20414;-52
2023/06/23 03:42:08;;;;;;;11.68;9.15;;;;;;;21.53;58.79;102026.69;5019678;28;20065;-51
2023/06/23 03:44:39;;;;;;;11.80;8.88;;;;;;;21.52;59.31;102016.00;5021027;28;20129;-51
2023/06/23 03:47:11;;;;;;;12.30;8.82;;;;;;;21.51;59.33;102012.41;5021843;28;20040;-52
2023/06/23 03:49:44;;;;;;;14.55;9.38;;;;;;;21.52;58.90;102013.28;5019789;28;20124;-50
2023/06/23 03:52:12;;;;;;;13.52;9.18;;;;;;;21.51;58.76;102003.44;5020201;28;20554;-51
2023/06/23 03:54:39;;;;;;;11.88;9.18;;;;;;;21.50;59.21;102007.16;5021077;28;20027;-52
2023/06/23 03:57:09;;;;;;;14.25;9.70;;;;;;;21.49;58.93;102014.41;5021755;28;20038;-51
2023/06/23 03:59:37;;;;;;;11.10;9.55;;;;;;;21.48;59.44;102032.53;5015716;28;20124;-51
2023/06/23 04:02:05;;;;;;;10.90;9.40;;;;;;;21.48;58.90;102040.66;5018174;28;20065;-51
2023/06/23 04:04:32;;;;;;;16.95;9.45;;;;;;;21.47;59.24;102038.94;5020759;28;20038;-51
2023/06/23 04:06:59;;;;;;;11.57;9.05;;;;;;;21.47;59.34;102038.09;5020674;28;20068;-52
2023/06/23 04:09:27;;;;;;;14.80;9.80;;;;;;;21.47;59.00;102044.34;5023719;28;20068;-50
2023/06/23 04:11:55;;;;;;;12.07;9.63;;;;;;;21.47;59.25;102054.34;5023952;28;20041;-51
2023/06/23 04:14:23;;;;;;;13.75;9.60;;;;;;;21.46;59.26;102048.06;5024493;28;20029;-52
2023/06/23 04:16:51;;;;;;;12.95;9.57;;;;;;;21.46;59.42;102053.50;5024220;28;20059;-51
2023/06/23 04:19:19;;;;;;;13.05;9.85;;;;;;;21.46;59.22;102052.66;5022641;28;20472;-52
2023/06/23 04:21:45;;;;;;;12.25;9.55;;;;;;;21.44;59.30;102050.06;5023143;28;20143;-51
2023/06/23 04:24:14;;;;;;;13.95;9.25;;;;;;;21.43;58.88;102053.72;5021313;28;20064;-51
2023/06/23 04:26:42;;;;;;;14.00;9.90;;;;;;;21.44;58.89;102050.06;5023893;28;20025;-51
2023/06/23 04:29:10;;;;;;;10.40;8.82;;;;;;;21.44;59.52;102054.66;5023257;28;20033;-51
2023/06/23 04:31:38;;;;;;;16.23;9.27;;;;;;;21.44;59.06;102060.91;5027629;28;20090;-52
2023/06/23 04:34:03;;;;;;;12.65;9.82;;;;;;;21.44;59.16;102060.91;5020322;28;20077;-52
2023/06/23 04:36:54;;;;;;;11.48;8.93;;;;;;;21.46;59.58;102063.50;5027618;28;20037;-52
2023/06/23 04:39:31;;;;;;;10.77;8.73;;;;;;;21.45;59.30;102059.91;5022629;28;20025;-52
2023/06/23 04:42:01;;;;;;;15.90;9.75;;;;;;;21.44;59.88;102070.91;5023531;28;20131;-52
2023/06/23 04:44:32;;;;;;;11.98;9.45;;;;;;;21.43;59.72;102070.00;5022726;28;20061;-52
2023/06/23 04:47:01;;;;;;;14.90;9.77;;;;;;;21.43;59.87;102078.13;5021729;28;20022;-51
2023/06/23 04:49:29;;;;;;;14.07;10.18;;;;;;;21.42;59.67;102076.41;5024954;28;20413;-51
2023/06/23 04:51:58;;;;;;;16.75;9.95;;;;;;;21.43;59.63;102086.25;5023928;28;20067;-51
2023/06/23 04:54:40;;;;;;;14.85;9.65;;;;;;;21.43;60.07;102082.69;5023049;28;20112;-52
2023/06/23 04:57:09;;;;;;;15.60;10.55;;;;;;;21.42;59.74;102073.72;5018963;28;20042;-50
2023/06/23 04:59:39;;;;;;;11.63;9.05;;;;;;;21.42;59.93;102078.28;5023436;28;20476;-51
2023/06/23 05:02:06;;;;;;;14.10;9.65;;;;;;;21.42;59.93;102081.84;5024504;28;20041;-52
2023/06/23 05:04:34;;;;;;;15.00;10.57;;;;;;;21.41;60.23;102088.25;5022256;28;20033;-50
2023/06/23 05:07:02;;;;;;;14.85;10.07;;;;;;;21.41;60.45;102092.81;5018827;28;20040;-50
2023/06/23 05:09:28;;;;;;;14.32;10.75;;;;;;;21.42;60.53;102100.81;5022071;28;20064;-51
2023/06/23 05:11:55;;;;;;;14.40;10.57;;;;;;;21.41;60.68;102109.91;5025905;28;20044;-52
2023/06/23 05:14:23;;;;;;;16.63;10.13;;;;;;;21.41;60.41;102109.91;5021230;28;20040;-52
2023/06/23 05:16:50;;;;;;;16.30;10.80;;;;;;;21.42;60.87;102118.94;5022371;28;20028;-52
2023/06/23 05:19:17;;;;;;;16.83;10.80;;;;;;;21.42;60.88;102110.78;5022285;28;20056;-51
2023/06/23 05:21:44;;;;;;;14.65;10.85;;;;;;;21.41;60.63;102112.63;5021439;28;20037;-51
2023/06/23 05:24:11;;;;;;;15.63;10.57;;;;;;;21.42;60.79;102113.50;5022817;28;20124;-50
2023/06/23 05:26:39;;;;;;;14.20;10.52;;;;;;;21.41;60.65;102109.91;5022489;28;20079;-49
2023/06/23 05:29:07;;;;;;;15.35;10.55;;;;;;;21.41;60.99;102115.34;5026253;28;20029;-52
2023/06/23 05:31:36;;;;;;;13.05;10.77;;;;;;;21.42;60.87;102119.78;5026823;28;20381;-52
2023/06/23 05:34:03;;;;;;;13.38;10.38;;;;;;;21.41;61.50;102123.47;5021355;28;20419;-51
2023/06/23 05:36:30;;;;;;;13.23;10.10;;;;;;;21.40;61.01;102124.47;5023941;28;20396;-50
2023/06/23 05:38:57;;;;;;;14.93;10.70;;;;;;;21.41;61.36;102126.19;5020589;28;20435;-51
2023/06/23 05:41:22;;;;;;;13.75;10.90;;;;;;;21.42;61.56;102127.91;5019998;28;20026;-51
2023/06/23 05:43:48;;;;;;;15.27;11.70;;;;;;;21.42;61.75;102127.91;5022556;28;20032;-50
2023/06/23 05:46:16;;;;;;;17.83;11.63;;;;;;;21.41;61.44;102131.59;5016644;28;20026;-51
2023/06/23 05:48:44;;;;;;;15.43;10.73;;;;;;;21.43;61.91;102128.75;5017600;28;20416;-51
2023/06/23 05:51:16;;;;;;;18.50;11.02;;;;;;;21.42;61.71;102132.47;5022426;28;20021;-52
2023/06/23 05:53:42;;;;;;;14.82;10.63;;;;;;;21.42;61.63;102138.75;5018845;28;20034;-51
2023/06/23 05:56:21;;;;;;;18.08;11.05;;;;;;;21.42;61.42;102140.59;5018664;28;20068;-51
2023/06/23 05:58:51;;;;;;;19.92;11.95;;;;;;;21.41;62.20;102139.72;5021239;28;20037;-51
2023/06/23 06:01:21;;;;;;;16.55;11.43;;;;;;;21.42;62.27;102138.75;5019430;28;20112;-52
2023/06/23 06:04:12;;;;;;;17.83;11.93;;;;;;;21.44;62.05;102144.06;5021398;28;20026;-50
2023/06/23 06:06:38;;;;;;;15.70;11.45;;;;;;;21.43;62.63;102148.56;5018248;28;20036;-52
2023/06/23 06:09:07;;;;;;;20.63;12.35;;;;;;;21.42;62.67;102149.59;5019960;28;20111;-51
2023/06/23 06:11:33;;;;;;;18.98;12.73;;;;;;;21.42;62.34;102160.41;5019614;28;20033;-52
2023/06/23 06:14:01;;;;;;;17.63;12.63;;;;;;;21.43;62.61;102161.28;5020363;28;20099;-50
2023/06/23 06:16:28;;;;;;;17.83;12.13;;;;;;;21.42;63.18;102163.13;5020560;28;20395;-51
2023/06/23 06:18:55;;;;;;;19.10;14.25;;;;;;;21.43;63.01;102172.09;5019048;28;20121;-50
2023/06/23 06:21:22;;;;;;;18.08;12.55;;;;;;;21.43;62.74;102169.41;5019424;28;20487;-50
2023/06/23 06:23:51;;;;;;;16.23;13.23;;;;;;;21.43;62.98;102166.69;5018444;28;20049;-51
2023/06/23 06:26:18;;;;;;;17.92;13.73;;;;;;;21.44;63.22;102172.00;5022880;28;20038;-49
2023/06/23 06:28:46;;;;;;;19.40;13.45;;;;;;;21.43;63.58;102162.13;5022109;28;20075;-49
2023/06/23 06:31:13;;;;;;;19.20;13.52;;;;;;;21.43;63.68;102166.69;5022078;28;20046;-51
2023/06/23 06:33:41;;;;;;;16.15;13.15;;;;;;;21.44;63.54;102180.13;5019225;28;20025;-49
2023/06/23 06:36:07;;;;;;;16.88;13.73;;;;;;;21.44;63.48;102168.44;5020139;28;20025;-51
2023/06/23 06:38:35;;;;;;;21.90;14.57;;;;;;;21.45;63.54;102170.16;5021969;28;20030;-52
2023/06/23 06:41:07;;;;;;;19.92;14.32;;;;;;;21.45;63.86;102175.56;5019755;28;20025;-51
2023/06/23 06:43:33;;;;;;;19.95;14.20;;;;;;;21.45;63.49;102183.69;5022533;28;20042;-51
2023/06/23 06:46:04;;;;;;;20.45;14.10;;;;;;;21.44;64.14;102185.56;5014074;28;20064;-49
2023/06/23 06:48:31;;;;;;;17.33;13.43;;;;;;;21.46;63.98;102189.00;5014621;28;20041;-50
2023/06/23 06:50:58;;;;;;;22.27;14.20;;;;;;;21.46;63.88;102191.69;5012476;28;20030;-51
2023/06/23 06:53:24;;;;;;;19.05;13.65;;;;;;;21.46;63.65;102197.13;5018756;28;20068;-50
2023/06/23 06:55:51;;;;;;;20.85;15.30;;;;;;;21.45;63.91;102203.50;5021314;28;20025;-52
2023/06/23 06:58:16;;;;;;;22.98;15.05;;;;;;;21.46;63.74;102197.13;5019725;28;20030;-51
2023/06/23 07:00:43;;;;;;;21.10;14.75;;;;;;;21.47;63.84;102209.66;5017608;28;20041;-51
2023/06/23 07:03:10;;;;;;;18.15;13.52;;;;;;;21.46;64.13;102207.97;5015228;28;20443;-48
2023/06/23 07:05:35;;;;;;;20.85;15.20;;;;;;;21.47;64.23;102200.69;5022100;28;20550;-49
2023/06/23 07:08:01;;;;;;;16.67;13.52;;;;;;;21.47;63.71;102209.66;5015516;28;20037;-52
2023/06/23 07:10:26;;;;;;;18.27;13.30;;;;;;;21.47;64.14;102212.38;5016623;28;20619;-51
2023/06/23 07:12:52;;;;;;;18.88;14.32;;;;;;;21.47;63.79;102215.06;5019356;28;20026;-51
2023/06/23 07:15:17;;;;;;;17.88;14.38;;;;;;;21.48;63.91;102215.97;5019787;28;20037;-52
2023/06/23 07:17:43;;;;;;;18.38;14.60;;;;;;;21.47;64.29;102222.34;5020014;28;20117;-51
2023/06/23 07:20:08;;;;;;;17.73;13.98;;;;;;;21.48;64.23;102224.09;5021765;28;20029;-50
2023/06/23 07:22:34;;;;;;;18.33;14.43;;;;;;;21.48;63.99;102224.09;5018184;28;20141;-48
2023/06/23 07:24:59;;;;;;;18.65;13.88;;;;;;;21.48;64.14;102229.50;5022701;28;20030;-51
2023/06/23 07:27:25;;;;;;;19.75;13.55;;;;;;;21.48;64.34;102235.78;5019861;28;20037;-47
2023/06/23 07:29:50;;;;;;;18.45;14.63;;;;;;;21.49;64.17;102233.91;5020518;28;20034;-50
2023/06/23 07:32:16;;;;;;;17.98;13.95;;;;;;;21.49;64.13;102242.03;5017013;28;20380;-51
2023/06/23 07:34:41;;;;;;;17.63;13.57;;;;;;;21.50;64.13;102232.09;5019758;28;20384;-50
2023/06/23 07:37:10;;;;;;;17.25;13.70;;;;;;;21.48;64.20;102235.78;5020260;28;20049;-51
2023/06/23 07:39:36;;;;;;;17.33;13.48;;;;;;;21.48;64.17;102241.19;5018673;28;20383;-51
2023/06/23 07:42:02;;;;;;;14.63;12.00;;;;;;;21.51;64.73;102236.50;5021616;28;20038;-50
2023/06/23 07:44:27;;;;;;;15.85;11.93;;;;;;;21.50;64.52;102238.34;5018891;28;20120;-51
2023/06/23 07:46:53;;;;;;;16.98;11.88;;;;;;;21.51;64.48;102250.03;5023999;28;20068;-51
2023/06/23 07:49:18;;;;;;;17.45;11.63;;;;;;;21.50;64.18;102243.78;5023628;28;20472;-50
2023/06/23 07:51:43;;;;;;;17.05;10.10;;;;;;;21.51;64.40;102244.63;5018892;28;20029;-51
2023/06/23 07:54:09;;;;;;;12.60;9.85;;;;;;;21.51;63.82;102239.19;5024294;28;20025;-50
2023/06/23 07:56:34;;;;;;;14.50;8.93;;;;;;;21.51;64.14;102233.78;5022946;28;20088;-50
2023/06/23 07:58:59;;;;;;;14.35;8.90;;;;;;;21.52;63.61;102239.06;5022721;28;20033;-52
2023/06/23 08:01:25;;;;;;;10.13;7.90;;;;;;;21.51;63.88;102237.34;5024284;28;20409;-49
2023/06/23 08:03:50;;;;;;;8.75;7.85;;;;;;;21.52;63.46;102241.78;5019469;28;20042;-50
2023/06/23 08:06:23;;;;;;;10.73;7.50;;;;;;;21.52;63.63;102249.06;5018209;28;20434;-51
2023/06/23 08:08:48;;;;;;;9.93;7.95;;;;;;;21.52;63.59;102235.50;5022835;28;20065;-51
2023/06/23 08:11:14;;;;;;;8.85;7.07;;;;;;;21.53;63.49;102242.63;5022011;28;20033;-50
2023/06/23 08:13:39;;;;;;;7.45;6.47;;;;;;;21.54;63.45;102244.38;5022954;28;20426;-50
2023/06/23 08:16:05;;;;;;;7.60;6.40;;;;;;;21.53;63.39;102237.22;5023252;28;20041;-48
2023/06/23 08:18:30;;;;;;;8.93;6.18;;;;;;;21.53;63.34;102240.78;5023335;28;20091;-51
2023/06/23 08:20:56;;;;;;;7.90;5.50;;;;;;;21.53;63.37;102243.47;5029480;28;20578;-51
2023/06/23 08:23:21;;;;;;;6.40;5.18;;;;;;;21.54;63.06;102244.38;5022496;28;20113;-51
2023/06/23 08:25:46;;;;;;;8.48;5.22;;;;;;;21.54;63.03;102244.38;5022942;28;20116;-51
2023/06/23 08:28:12;;;;;;;6.38;5.07;;;;;;;21.55;63.02;102248.78;5023203;28;20060;-51
2023/06/23 08:30:37;;;;;;;6.88;5.00;;;;;;;21.55;62.49;102248.78;5025032;28;20163;-49
2023/06/23 08:33:02;;;;;;;5.07;4.60;;;;;;;21.55;62.41;102262.31;5022256;28;20112;-51
2023/06/23 08:35:28;;;;;;;5.13;4.63;;;;;;;21.55;62.54;102252.38;5021153;28;20049;-51
2023/06/23 08:37:53;;;;;;;5.43;4.57;;;;;;;21.55;62.28;102246.94;5018567;28;20034;-51
2023/06/23 08:40:19;;;;;;;5.80;4.60;;;;;;;21.56;62.16;102259.50;5021504;28;20091;-51
2023/06/23 08:42:44;;;;;;;5.93;4.68;;;;;;;21.55;62.16;102259.63;5018989;28;20045;-51
2023/06/23 08:45:12;;;;;;;4.40;4.00;;;;;;;21.55;62.02;102268.63;5019668;28;20032;-49
2023/06/23 08:47:46;;;;;;;5.30;4.15;;;;;;;21.56;62.53;102269.47;5017487;28;20557;-47
2023/06/23 08:50:13;;;;;;;6.22;4.32;;;;;;;21.55;62.29;102268.63;5019509;28;20014;-50
2023/06/23 08:52:38;;;;;;;4.43;4.03;;;;;;;21.56;62.25;102274.91;5023799;28;20034;-48
2023/06/23 08:55:04;;;;;;;5.03;4.38;;;;;;;21.57;61.95;102279.31;5022771;28;20428;-50
2023/06/23 08:57:30;;;;;;;4.07;3.75;;;;;;;21.56;62.26;102274.91;5021146;28;20124;-51
2023/06/23 08:59:56;;;;;;;4.00;3.60;;;;;;;21.56;61.78;102285.75;5019072;28;20373;-48
2023/06/23 09:02:22;;;;;;;5.25;4.28;;;;;;;21.56;61.96;102292.00;5017849;28;20117;-50
2023/06/23 09:04:48;;;;;;;3.40;3.10;;;;;;;21.57;61.91;102292.84;5021090;28;20045;-51
2023/06/23 09:07:14;;;;;;;4.88;3.65;;;;;;;21.57;61.49;102296.44;5017960;28;20091;-49
2023/06/23 09:09:41;;;;;;;4.57;3.78;;;;;;;21.57;61.84;102295.56;5019124;28;20049;-48
2023/06/23 09:12:07;;;;;;;5.22;3.90;;;;;;;21.57;61.51;102303.69;5018574;28;20044;-50
2023/06/23 09:14:35;;;;;;;4.28;3.88;;;;;;;21.57;61.31;102292.84;5026001;28;20038;-50
2023/06/23 09:17:01;;;;;;;4.22;3.55;;;;;;;21.56;61.63;102297.44;5026519;28;20033;-51
2023/06/23 09:19:27;;;;;;;3.45;3.15;;;;;;;21.57;61.27;102303.69;5019281;28;20076;-51
2023/06/23 09:21:54;;;;;;;5.45;3.53;;;;;;;21.57;61.24;102304.59;5022814;28;20108;-50
2023/06/23 09:24:20;;;;;;;3.90;3.50;;;;;;;21.58;61.56;102300.88;5021307;28;20034;-49
2023/06/23 09:26:48;;;;;;;4.00;3.60;;;;;;;21.58;61.52;102300.00;5022205;28;20030;-52
2023/06/23 09:29:19;;;;;;;4.15;3.83;;;;;;;21.58;61.17;102303.56;5023947;28;20029;-51
2023/06/23 09:31:49;;;;;;;3.90;3.50;;;;;;;21.58;61.27;102305.44;5021314;28;20385;-49
2023/06/23 09:34:34;;;;;;;4.18;3.78;;;;;;;21.60;61.32;102312.44;5021233;28;20025;-50
2023/06/23 09:37:11;;;;;;;3.70;3.40;;;;;;;21.60;61.32;102323.28;5022018;28;20466;-50
2023/06/23 09:39:38;;;;;;;3.72;3.20;;;;;;;21.59;60.99;102320.69;5021328;28;20069;-50
2023/06/23 09:42:06;;;;;;;3.83;3.53;;;;;;;21.59;60.71;102321.56;5022613;28;20032;-51
2023/06/23 09:44:33;;;;;;;4.03;3.63;;;;;;;21.61;61.09;102329.53;5019883;28;20045;-50
2023/06/23 09:47:03;;;;;;;3.55;3.25;;;;;;;21.60;61.24;102325.97;5018943;28;20030;-51
2023/06/23 09:49:36;;;;;;;3.00;2.80;;;;;;;21.60;60.74;102320.56;5016766;28;20084;-51
2023/06/23 09:52:01;;;;;;;5.80;3.38;;;;;;;21.62;61.30;102324.00;5020327;28;20025;-51
2023/06/23 09:54:37;;;;;;;6.22;4.00;;;;;;;21.65;61.83;102331.88;5020511;28;20034;-46
2023/06/23 09:57:04;;;;;;;6.43;4.40;;;;;;;21.66;63.22;102328.16;5017499;28;20061;-50
2023/06/23 09:59:30;;;;;;;5.55;4.63;;;;;;;21.67;63.24;102326.31;5021682;28;20586;-51
2023/06/23 10:01:56;;;;;;;5.25;4.75;;;;;;;21.69;63.83;102329.75;5019511;28;20512;-50
2023/06/23 10:04:27;;;;;;;5.60;4.43;;;;;;;21.70;63.57;102323.31;5024735;28;20031;-49
2023/06/23 10:06:53;;;;;;;5.72;4.68;;;;;;;21.69;63.36;102318.91;5018930;28;20057;-50
2023/06/23 10:09:23;;;;;;;6.80;4.55;;;;;;;21.71;63.76;102319.63;5024304;28;20621;-50
2023/06/23 10:11:49;;;;;;;8.38;4.68;;;;;;;21.70;63.51;102315.19;5020052;28;20718;-46
2023/06/23 10:14:15;;;;;;;5.32;4.30;;;;;;;21.72;64.08;102317.75;5020454;28;20505;-47
2023/06/23 10:16:45;;;;;;;5.25;4.68;;;;;;;21.71;63.63;102319.63;5017608;28;20060;-48
2023/06/23 10:19:14;;;;;;;4.93;4.43;;;;;;;21.73;64.15;102324.91;5020177;28;20033;-50
2023/06/23 10:21:40;;;;;;;6.93;4.43;;;;;;;21.73;63.79;102325.78;5018950;28;20037;-47
2023/06/23 10:24:09;;;;;;;5.35;4.78;;;;;;;21.74;63.75;102324.78;5019390;28;20041;-49
2023/06/23 10:26:37;;;;;;;4.78;4.38;;;;;;;21.74;64.21;102319.38;5020031;28;20029;-48
2023/06/23 10:29:09;;;;;;;3.97;3.65;;;;;;;21.76;63.69;102321.91;5007649;28;20068;-49
2023/06/23 10:31:36;;;;;;;4.78;4.07;;;;;;;21.77;64.13;102327.22;5017919;28;20104;-51
2023/06/23 10:34:05;;;;;;;4.93;4.50;;;;;;;21.77;64.01;102326.34;5017391;28;20022;-50
2023/06/23 10:36:31;;;;;;;4.78;4.05;;;;;;;21.78;64.07;102328.06;5020392;28;20033;-50
2023/06/23 10:39:01;;;;;;;4.65;4.20;;;;;;;21.77;63.99;102327.22;5015557;28;20179;-49
2023/06/23 10:41:27;;;;;;;4.45;4.05;;;;;;;21.79;64.49;102329.78;5016581;28;20060;-49
2023/06/23 10:43:56;;;;;;;4.03;3.70;;;;;;;21.79;64.12;102335.22;5018640;28;20500;-51
2023/06/23 10:46:22;;;;;;;4.65;4.20;;;;;;;21.79;64.05;102338.78;5019973;28;20037;-50
2023/06/23 10:48:49;;;;;;;5.55;4.47;;;;;;;21.80;64.10;102334.19;5019048;28;20510;-50
2023/06/23 10:51:14;;;;;;;4.45;4.05;;;;;;;21.80;64.23;102337.78;5018317;28;20045;-50
2023/06/23 10:53:57;;;;;;;4.22;3.83;;;;;;;21.81;63.68;102333.22;5018191;28;20060;-50
2023/06/23 10:56:34;;;;;;;5.90;3.90;;;;;;;21.82;63.55;102335.81;5028246;28;20140;-50
2023/06/23 10:59:21;;;;;;;4.28;3.72;;;;;;;21.83;63.89;102334.78;4990727;28;20049;-48
2023/06/23 11:02:10;;;;;;;4.32;3.80;;;;;;;21.83;63.99;102334.78;5020989;28;20546;-50
2023/06/23 11:04:41;;;;;;;4.60;4.20;;;;;;;21.83;64.35;102345.63;5019836;28;20053;-50
2023/06/23 11:07:08;;;;;;;4.87;3.50;;;;;;;21.84;64.20;102350.09;5019920;28;20029;-49
2023/06/23 11:10:06;;;;;;;4.60;4.13;;;;;;;21.84;64.15;102343.81;5018618;28;20395;-49
2023/06/23 11:12:38;;;;;;;4.47;3.63;;;;;;;21.83;64.06;102342.94;5017574;28;20436;-49
2023/06/23 11:15:16;;;;;;;4.63;3.90;;;;;;;21.85;64.30;102346.38;5016334;28;20014;-49
2023/06/23 11:17:49;;;;;;;4.53;3.85;;;;;;;21.84;63.88;102347.38;5024908;28;20038;-49
2023/06/23 11:20:24;;;;;;;4.43;3.72;;;;;;;21.85;63.94;102340.94;5023508;28;20093;-48
2023/06/23 11:22:59;;;;;;;5.05;3.65;;;;;;;21.86;64.45;102348.09;5022193;28;20048;-50
2023/06/23 11:25:27;;;;;;;3.95;3.65;;;;;;;21.86;64.24;102352.66;5025903;28;20099;-48
2023/06/23 11:28:28;;;;;;;5.35;4.68;;;;;;;21.88;63.96;102345.25;5020181;28;20029;-46